createdAt,value
2022-11-23T00:01:28.204Z,4.25
2022-11-23T00:03:59.322Z,4.57
2022-11-23T00:06:27.249Z,4.15
2022-11-23T00:08:54.910Z,4.55
2022-11-23T00:11:24.264Z,6.43
2022-11-23T00:13:51.955Z,5.03
2022-11-23T00:16:25.240Z,4.53
2022-11-23T00:19:00.188Z,6.07
2022-11-23T00:21:29.685Z,4.50
2022-11-23T00:23:57.019Z,4.28
2022-11-23T00:26:24.512Z,3.53
2022-11-23T00:28:51.430Z,4.60
2022-11-23T00:31:20.239Z,4.13
2022-11-23T00:33:54.418Z,4.40
2022-11-23T00:36:23.045Z,4.88
2022-11-23T00:38:50.438Z,3.38
2022-11-23T00:41:20.076Z,3.28
2022-11-23T00:43:48.261Z,2.83
2022-11-23T00:46:15.570Z,2.85
2022-11-23T00:48:44.477Z,3.15
2022-11-23T00:51:14.822Z,2.80
2022-11-23T00:53:42.356Z,2.97
2022-11-23T00:56:09.761Z,2.53
2022-11-23T00:58:40.214Z,2.75
2022-11-23T01:01:13.177Z,2.92
2022-11-23T01:03:47.801Z,3.53
2022-11-23T01:06:17.420Z,2.63
2022-11-23T01:08:51.830Z,2.85
2022-11-23T01:11:20.238Z,3.10
2022-11-23T01:13:47.957Z,2.35
2022-11-23T01:16:24.149Z,3.13
2022-11-23T01:19:08.018Z,2.75
2022-11-23T01:21:36.885Z,2.97
2022-11-23T01:24:08.929Z,2.72
2022-11-23T01:26:36.220Z,3.33
2022-11-23T01:29:03.393Z,2.30
2022-11-23T01:31:31.119Z,2.72
2022-11-23T01:34:04.807Z,2.72
2022-11-23T01:36:33.749Z,2.88
2022-11-23T01:39:05.199Z,2.92
2022-11-23T01:41:40.852Z,2.42
2022-11-23T01:44:28.694Z,2.55
2022-11-23T01:47:01.934Z,2.88
2022-11-23T01:49:46.511Z,2.42
2022-11-23T01:52:18.580Z,2.63
2022-11-23T01:54:49.558Z,2.58
2022-11-23T01:57:44.409Z,2.30
2022-11-23T02:00:13.495Z,2.65
2022-11-23T02:02:50.080Z,2.60
2022-11-23T02:05:20.276Z,5.20
2022-11-23T02:07:49.653Z,2.83
2022-11-23T02:10:17.413Z,2.35
2022-11-23T02:12:44.667Z,2.85
2022-11-23T02:15:11.645Z,3.03
2022-11-23T02:17:38.556Z,2.33
2022-11-23T02:20:09.365Z,2.35
2022-11-23T02:22:59.309Z,2.05
2022-11-23T02:25:44.251Z,2.55
2022-11-23T02:28:18.920Z,2.38
2022-11-23T02:30:52.801Z,2.47
2022-11-23T02:33:20.451Z,2.40
2022-11-23T02:35:59.348Z,2.22
2022-11-23T02:38:32.948Z,2.70
2022-11-23T02:41:00.030Z,2.38
2022-11-23T02:43:28.656Z,3.03
2022-11-23T02:45:55.853Z,2.95
2022-11-23T02:48:23.263Z,3.38
2022-11-23T02:50:50.528Z,2.83
2022-11-23T02:53:18.402Z,2.80
2022-11-23T02:55:45.812Z,1.92
2022-11-23T02:58:13.400Z,2.60
2022-11-23T03:00:40.909Z,2.55
2022-11-23T03:03:08.118Z,2.40
2022-11-23T03:05:35.077Z,2.38
2022-11-23T03:08:02.287Z,3.08
2022-11-23T03:10:29.889Z,2.72
2022-11-23T03:12:57.379Z,3.25
2022-11-23T03:15:25.511Z,2.92
2022-11-23T03:17:52.805Z,2.97
2022-11-23T03:20:20.603Z,2.90
2022-11-23T03:22:47.836Z,2.65
2022-11-23T03:25:14.941Z,2.35
2022-11-23T03:27:42.187Z,2.50
2022-11-23T03:30:10.130Z,3.15
2022-11-23T03:32:37.405Z,2.70
2022-11-23T03:35:05.545Z,2.38
2022-11-23T03:37:32.642Z,2.40
2022-11-23T03:39:59.490Z,2.25
2022-11-23T03:42:27.172Z,2.53
2022-11-23T03:44:56.873Z,2.80
2022-11-23T03:47:23.710Z,2.65
2022-11-23T03:49:50.567Z,3.55
2022-11-23T03:52:17.984Z,2.40
2022-11-23T03:54:45.064Z,2.13
2022-11-23T03:57:11.981Z,2.92
2022-11-23T03:59:39.301Z,2.40
2022-11-23T04:02:08.135Z,2.72
2022-11-23T04:04:36.272Z,2.90
2022-11-23T04:07:03.552Z,3.20
2022-11-23T04:09:31.014Z,2.85
2022-11-23T04:11:58.061Z,2.40
2022-11-23T04:14:24.909Z,2.80
2022-11-23T04:16:52.501Z,2.55
2022-11-23T04:19:19.452Z,2.63
2022-11-23T04:21:46.478Z,3.10
2022-11-23T04:24:13.972Z,3.20
2022-11-23T04:26:41.025Z,2.45
2022-11-23T04:29:08.245Z,2.75
2022-11-23T04:31:35.283Z,2.58
2022-11-23T04:34:02.160Z,2.97
2022-11-23T04:36:29.217Z,2.97
2022-11-23T04:38:56.464Z,2.80
2022-11-23T04:41:24.576Z,3.15
2022-11-23T04:43:52.264Z,2.53
2022-11-23T04:46:19.641Z,2.63
2022-11-23T04:48:46.499Z,2.90
2022-11-23T04:51:14.400Z,4.13
2022-11-23T04:53:41.312Z,2.88
2022-11-23T04:56:08.384Z,2.88
2022-11-23T04:58:36.710Z,2.40
2022-11-23T05:01:04.914Z,2.67
2022-11-23T05:03:35.189Z,2.90
2022-11-23T05:06:03.749Z,2.28
2022-11-23T05:08:31.519Z,2.90
2022-11-23T05:10:58.829Z,2.78
2022-11-23T05:13:25.886Z,2.92
2022-11-23T05:15:53.415Z,3.17
2022-11-23T05:18:20.717Z,2.95
2022-11-23T05:20:48.022Z,2.72
2022-11-23T05:23:15.280Z,2.58
2022-11-23T05:25:42.309Z,2.97
2022-11-23T05:28:38.588Z,2.92
2022-11-23T05:31:03.514Z,3.10
2022-11-23T05:33:30.375Z,3.72
2022-11-23T05:35:57.893Z,2.67
2022-11-23T05:38:25.515Z,2.88
2022-11-23T05:40:53.603Z,3.08
2022-11-23T05:43:23.027Z,2.78
2022-11-23T05:45:50.700Z,3.42
2022-11-23T05:48:17.912Z,3.58
2022-11-23T05:50:45.123Z,3.22
2022-11-23T05:53:14.849Z,2.70
2022-11-23T05:55:42.008Z,3.22
2022-11-23T05:58:08.918Z,3.17
2022-11-23T06:00:35.941Z,2.67
2022-11-23T06:03:03.428Z,3.05
2022-11-23T06:05:32.868Z,2.80
2022-11-23T06:08:00.231Z,3.25
2022-11-23T06:10:27.120Z,3.67
2022-11-23T06:12:54.319Z,3.50
2022-11-23T06:15:21.466Z,2.92
2022-11-23T06:17:48.456Z,2.75
2022-11-23T06:20:15.536Z,2.75
2022-11-23T06:22:42.398Z,2.92
2022-11-23T06:25:09.948Z,3.33
2022-11-23T06:27:36.829Z,6.38
2022-11-23T06:30:04.605Z,5.80
2022-11-23T06:32:31.950Z,7.03
2022-11-23T06:35:00.990Z,5.50
2022-11-23T06:37:28.217Z,4.50
2022-11-23T06:39:55.170Z,3.35
2022-11-23T06:42:39.722Z,3.22
2022-11-23T06:45:08.865Z,3.05
2022-11-23T06:47:35.898Z,3.40
2022-11-23T06:50:02.999Z,4.00
2022-11-23T06:52:30.055Z,4.28
2022-11-23T06:54:57.072Z,4.10
2022-11-23T06:57:24.463Z,4.05
2022-11-23T06:59:51.331Z,4.35
2022-11-23T07:02:18.634Z,4.40
2022-11-23T07:04:45.521Z,4.43
2022-11-23T07:07:12.949Z,4.80
2022-11-23T07:09:39.967Z,5.50
2022-11-23T07:12:07.675Z,5.10
2022-11-23T07:14:34.648Z,5.63
2022-11-23T07:17:01.636Z,4.32
2022-11-23T07:19:29.206Z,4.97
2022-11-23T07:21:56.494Z,5.75
2022-11-23T07:24:23.383Z,5.13
2022-11-23T07:26:50.820Z,4.55
2022-11-23T07:29:17.669Z,4.53
2022-11-23T07:31:44.663Z,5.25
2022-11-23T07:34:11.528Z,5.40
2022-11-23T07:36:39.229Z,5.35
2022-11-23T07:39:06.297Z,7.97
2022-11-23T07:41:34.209Z,8.10
2022-11-23T07:44:04.076Z,6.35
2022-11-23T07:46:30.990Z,5.88
2022-11-23T07:49:02.467Z,5.10
2022-11-23T07:51:29.773Z,5.57
2022-11-23T07:53:56.898Z,5.57
2022-11-23T07:56:24.569Z,4.72
2022-11-23T07:58:51.809Z,5.03
2022-11-23T08:01:20.745Z,4.25
2022-11-23T08:03:49.216Z,4.95
2022-11-23T08:06:16.801Z,4.78
2022-11-23T08:08:43.897Z,4.45
2022-11-23T08:11:14.939Z,4.45
2022-11-23T08:13:41.901Z,4.43
2022-11-23T08:16:08.937Z,4.32
2022-11-23T08:18:36.074Z,4.57
2022-11-23T08:21:03.416Z,4.85
2022-11-23T08:23:31.023Z,4.20
2022-11-23T08:25:58.098Z,4.28
2022-11-23T08:28:25.127Z,3.97
2022-11-23T08:30:52.166Z,5.07
2022-11-23T08:33:19.278Z,3.65
2022-11-23T08:35:46.524Z,3.85
2022-11-23T08:38:13.830Z,3.65
2022-11-23T08:40:41.586Z,3.67
2022-11-23T08:43:09.525Z,4.22
2022-11-23T08:45:36.403Z,4.03
2022-11-23T08:48:04.753Z,3.47
2022-11-23T08:50:34.520Z,3.50
2022-11-23T08:53:01.545Z,4.97
2022-11-23T08:55:29.269Z,4.43
2022-11-23T08:57:59.533Z,3.10
2022-11-23T09:00:27.671Z,4.00
2022-11-23T09:02:55.258Z,4.43
2022-11-23T09:05:22.180Z,5.57
2022-11-23T09:07:49.420Z,3.63
2022-11-23T09:10:19.038Z,3.47
2022-11-23T09:12:47.885Z,3.22
2022-11-23T09:15:15.119Z,3.67
2022-11-23T09:17:42.080Z,3.58
2022-11-23T09:20:10.223Z,3.33
2022-11-23T09:22:38.003Z,3.80
2022-11-23T09:25:12.099Z,3.83
2022-11-23T09:27:40.094Z,5.00
2022-11-23T09:30:07.742Z,3.95
2022-11-23T09:32:35.155Z,4.22
2022-11-23T09:35:06.749Z,3.85
2022-11-23T09:37:33.752Z,4.30
2022-11-23T09:40:03.367Z,3.60
2022-11-23T09:43:16.394Z,3.42
2022-11-23T09:46:14.169Z,3.45
2022-11-23T09:48:57.948Z,3.53
2022-11-23T09:51:25.092Z,2.97
2022-11-23T09:54:10.166Z,3.45
2022-11-23T09:56:38.959Z,4.75
2022-11-23T09:59:36.225Z,6.38
2022-11-23T10:02:03.840Z,6.05
2022-11-23T10:04:35.527Z,6.97
2022-11-23T10:07:18.057Z,6.50
2022-11-23T10:10:13.660Z,9.85
2022-11-23T10:13:08.537Z,6.93
2022-11-23T10:15:47.931Z,5.30
2022-11-23T10:18:44.286Z,3.97
2022-11-23T10:21:11.418Z,3.90
2022-11-23T10:23:39.750Z,4.00
2022-11-23T10:26:14.616Z,3.90
2022-11-23T10:28:41.679Z,3.83
2022-11-23T10:31:13.530Z,3.75
2022-11-23T10:33:55.369Z,3.88
2022-11-23T10:36:22.191Z,3.33
2022-11-23T10:38:58.579Z,2.53
2022-11-23T10:41:26.634Z,3.38
2022-11-23T10:44:02.761Z,3.63
2022-11-23T10:46:39.582Z,2.92
2022-11-23T10:49:13.190Z,2.42
2022-11-23T10:51:40.772Z,2.63
2022-11-23T10:54:20.312Z,2.80
2022-11-23T10:56:49.289Z,2.97
2022-11-23T10:59:34.328Z,2.45
2022-11-23T11:02:11.644Z,2.53
2022-11-23T11:04:38.526Z,2.50
2022-11-23T11:07:30.986Z,3.13
2022-11-23T11:10:00.279Z,3.00
2022-11-23T11:12:30.125Z,2.75
2022-11-23T11:15:10.704Z,3.63
2022-11-23T11:17:39.739Z,3.63
2022-11-23T11:20:32.223Z,4.00
2022-11-23T11:23:15.164Z,3.95
2022-11-23T11:25:42.645Z,3.92
2022-11-23T11:28:37.430Z,3.90
2022-11-23T11:31:42.675Z,3.30
2022-11-23T11:34:35.698Z,2.72
2022-11-23T11:37:21.761Z,2.13
2022-11-23T11:39:54.582Z,2.20
2022-11-23T11:42:30.728Z,2.50
2022-11-23T11:45:01.384Z,2.30
2022-11-23T11:47:43.752Z,2.50
2022-11-23T11:50:36.900Z,2.00
2022-11-23T11:53:14.490Z,2.42
2022-11-23T11:55:47.399Z,2.85
2022-11-23T11:58:18.196Z,2.33
2022-11-23T12:00:48.088Z,2.58
2022-11-23T12:03:33.676Z,2.20
2022-11-23T12:06:11.380Z,2.63
2022-11-23T12:08:48.084Z,2.70
2022-11-23T12:11:15.569Z,2.85
2022-11-23T12:13:47.083Z,2.55
2022-11-23T12:16:29.053Z,2.20
2022-11-23T12:19:26.517Z,2.20
2022-11-23T12:22:02.696Z,2.42
2022-11-23T12:25:03.962Z,2.33
2022-11-23T12:27:45.014Z,2.20
2022-11-23T12:30:52.114Z,2.38
2022-11-23T12:33:33.152Z,2.30
2022-11-23T12:36:29.110Z,2.10
2022-11-23T12:39:03.636Z,1.98
2022-11-23T12:41:46.483Z,2.35
2022-11-23T12:44:35.164Z,2.42
2022-11-23T12:47:23.880Z,2.58
2022-11-23T12:50:15.175Z,2.50
2022-11-23T12:53:12.486Z,3.25
2022-11-23T12:56:15.410Z,2.20
2022-11-23T12:58:47.023Z,2.60
2022-11-23T13:01:29.454Z,2.53
2022-11-23T13:04:33.759Z,2.92
2022-11-23T13:07:30.630Z,2.85
2022-11-23T13:10:22.228Z,3.10
2022-11-23T13:13:12.516Z,2.72
2022-11-23T13:15:48.496Z,2.90
2022-11-23T13:18:49.442Z,3.05
2022-11-23T13:21:25.401Z,2.63
2022-11-23T13:23:53.449Z,2.38
2022-11-23T13:26:33.967Z,2.63
2022-11-23T13:29:23.173Z,3.80
2022-11-23T13:32:32.169Z,2.78
2022-11-23T13:34:59.185Z,3.13
2022-11-23T13:37:26.328Z,2.47
2022-11-23T13:39:57.579Z,2.30
2022-11-23T13:42:27.324Z,2.40
2022-11-23T13:45:39.280Z,2.20
2022-11-23T13:48:41.378Z,3.88
2022-11-23T13:51:05.135Z,5.65
2022-11-23T13:53:40.663Z,5.45
2022-11-23T13:56:40.116Z,24.75
2022-11-23T13:59:29.653Z,6.32
2022-11-23T14:02:11.701Z,2.90
2022-11-23T14:04:43.447Z,4.45
2022-11-23T14:07:29.585Z,3.90
2022-11-23T14:10:15.081Z,4.22
2022-11-23T14:13:00.559Z,3.95
2022-11-23T14:15:32.962Z,3.50
2022-11-23T14:18:36.929Z,3.90
2022-11-23T14:21:07.047Z,4.57
2022-11-23T14:23:49.182Z,2.60
2022-11-23T14:26:43.738Z,3.97
2022-11-23T14:29:16.872Z,2.95
2022-11-23T14:32:20.740Z,3.97
2022-11-23T14:35:26.310Z,2.50
2022-11-23T14:37:59.403Z,2.97
2022-11-23T14:40:33.462Z,3.33
2022-11-23T14:43:02.243Z,4.35
2022-11-23T14:45:31.824Z,2.63
2022-11-23T14:48:25.834Z,2.17
2022-11-23T14:51:10.834Z,1.60
2022-11-23T14:53:50.173Z,1.90
2022-11-23T14:56:29.726Z,2.40
2022-11-23T14:59:02.808Z,1.90
2022-11-23T15:01:30.265Z,2.10
2022-11-23T15:04:09.455Z,2.10
2022-11-23T15:06:45.502Z,2.40
2022-11-23T15:09:34.168Z,2.58
2022-11-23T15:12:08.982Z,2.85
2022-11-23T15:14:36.529Z,4.50
2022-11-23T15:17:18.097Z,4.80
2022-11-23T15:19:54.431Z,3.05
2022-11-23T15:22:21.789Z,3.40
2022-11-23T15:24:49.113Z,3.65
2022-11-23T15:27:23.125Z,4.28
2022-11-23T15:29:55.866Z,4.55
2022-11-23T15:32:33.177Z,5.38
2022-11-23T15:35:07.046Z,3.80
2022-11-23T15:37:47.422Z,3.85
2022-11-23T15:40:17.327Z,4.28
2022-11-23T15:42:49.011Z,6.28
2022-11-23T15:45:57.110Z,4.93
2022-11-23T15:48:29.988Z,4.00
2022-11-23T15:50:59.595Z,5.05
2022-11-23T15:53:30.464Z,5.15
2022-11-23T15:56:06.352Z,6.32
2022-11-23T15:58:35.344Z,4.57
2022-11-23T16:01:28.981Z,4.90
2022-11-23T16:04:04.833Z,5.07
2022-11-23T16:06:36.166Z,3.75
2022-11-23T16:09:10.098Z,4.72
2022-11-23T16:11:45.470Z,4.55
2022-11-23T16:14:19.651Z,4.53
2022-11-23T16:17:14.791Z,5.00
2022-11-23T16:19:48.618Z,5.75
2022-11-23T16:22:48.271Z,4.00
2022-11-23T16:25:33.355Z,3.85
2022-11-23T16:28:03.152Z,4.15
2022-11-23T16:30:39.986Z,4.47
2022-11-23T16:33:17.607Z,4.07
2022-11-23T16:35:45.452Z,4.78
2022-11-23T16:38:15.590Z,4.28
2022-11-23T16:40:45.548Z,3.70
2022-11-23T16:43:13.730Z,5.10
2022-11-23T16:45:46.744Z,7.13
2022-11-23T16:48:26.077Z,5.68
2022-11-23T16:50:54.770Z,13.63
2022-11-23T16:53:22.033Z,22.85
2022-11-23T16:55:53.174Z,23.15
2022-11-23T16:58:20.532Z,19.67
2022-11-23T17:00:49.809Z,13.10
2022-11-23T17:03:21.323Z,9.23
2022-11-23T17:05:48.652Z,7.05
2022-11-23T17:08:21.699Z,6.88
2022-11-23T17:10:51.168Z,10.38
2022-11-23T17:13:24.601Z,8.40
2022-11-23T17:15:52.633Z,6.85
2022-11-23T17:18:19.978Z,8.13
2022-11-23T17:20:47.277Z,7.25
2022-11-23T17:23:14.809Z,6.22
2022-11-23T17:25:42.141Z,5.28
2022-11-23T17:28:16.306Z,5.38
2022-11-23T17:30:46.064Z,5.63
2022-11-23T17:33:13.711Z,6.07
2022-11-23T17:35:43.864Z,6.97
2022-11-23T17:38:24.761Z,6.03
2022-11-23T17:40:54.520Z,6.30
2022-11-23T17:43:24.553Z,6.68
2022-11-23T17:45:52.131Z,6.03
2022-11-23T17:48:19.367Z,5.75
2022-11-23T17:50:47.685Z,5.90
2022-11-23T17:53:22.563Z,5.30
2022-11-23T17:55:51.348Z,4.82
2022-11-23T17:58:19.077Z,6.70
2022-11-23T18:00:46.927Z,6.22
2022-11-23T18:03:14.177Z,5.78
2022-11-23T18:05:41.279Z,7.55
2022-11-23T18:08:08.859Z,6.68
2022-11-23T18:10:35.646Z,5.97
2022-11-23T18:13:28.234Z,5.35
2022-11-23T18:16:04.267Z,5.60
2022-11-23T18:18:34.929Z,5.78
2022-11-23T18:21:03.625Z,6.10
2022-11-23T18:23:30.814Z,6.10
2022-11-23T18:26:03.284Z,5.18
2022-11-23T18:28:30.764Z,4.45
2022-11-23T18:30:58.107Z,5.40
2022-11-23T18:33:25.252Z,5.32
2022-11-23T18:35:52.112Z,5.40
2022-11-23T18:38:19.287Z,5.63
2022-11-23T18:40:46.247Z,4.82
2022-11-23T18:43:13.086Z,5.47
2022-11-23T18:45:40.182Z,5.28
2022-11-23T18:48:09.015Z,4.97
2022-11-23T18:50:37.135Z,6.35
2022-11-23T18:53:04.036Z,6.40
2022-11-23T18:55:31.093Z,5.50
2022-11-23T18:57:58.414Z,5.18
2022-11-23T19:00:26.004Z,5.40
2022-11-23T19:02:58.865Z,5.75
2022-11-23T19:05:27.783Z,5.07
2022-11-23T19:07:57.534Z,5.25
2022-11-23T19:10:24.838Z,5.32
2022-11-23T19:12:52.381Z,6.00
2022-11-23T19:15:19.607Z,5.70
2022-11-23T19:17:47.909Z,5.60
2022-11-23T19:20:17.046Z,4.93
2022-11-23T19:22:44.250Z,4.38
2022-11-23T19:25:11.191Z,5.07
2022-11-23T19:27:38.193Z,6.43
2022-11-23T19:30:09.058Z,6.85
2022-11-23T19:32:36.934Z,4.90
2022-11-23T19:35:04.558Z,5.40
2022-11-23T19:37:31.695Z,4.38
2022-11-23T19:39:59.224Z,4.88
2022-11-23T19:42:26.584Z,4.72
2022-11-23T19:44:53.758Z,5.40
2022-11-23T19:47:22.923Z,4.75
2022-11-23T19:49:50.023Z,4.32
2022-11-23T19:52:17.005Z,5.13
2022-11-23T19:54:43.916Z,4.93
2022-11-23T19:57:11.076Z,5.65
2022-11-23T19:59:38.182Z,4.88
2022-11-23T20:02:05.242Z,5.70
2022-11-23T20:04:32.288Z,5.47
2022-11-23T20:06:59.356Z,4.80
2022-11-23T20:09:27.749Z,4.18
2022-11-23T20:11:54.708Z,5.10
2022-11-23T20:14:21.731Z,5.82
2022-11-23T20:16:49.011Z,4.72
2022-11-23T20:19:15.953Z,5.18
2022-11-23T20:21:43.098Z,5.40
2022-11-23T20:24:13.020Z,4.95
2022-11-23T20:26:41.463Z,4.82
2022-11-23T20:29:20.460Z,4.93
2022-11-23T20:31:47.476Z,5.90
2022-11-23T20:34:20.442Z,4.60
2022-11-23T20:36:48.949Z,4.20
2022-11-23T20:39:16.640Z,5.15
2022-11-23T20:41:53.394Z,4.53
2022-11-23T20:44:21.075Z,5.40
2022-11-23T20:47:06.116Z,4.75
2022-11-23T20:49:33.947Z,5.00
2022-11-23T20:52:02.240Z,4.82
2022-11-23T20:54:37.355Z,4.32
2022-11-23T20:57:04.672Z,4.50
2022-11-23T20:59:33.029Z,4.65
2022-11-23T21:02:00.182Z,4.60
2022-11-23T21:04:27.171Z,4.65
2022-11-23T21:06:54.755Z,3.67
2022-11-23T21:09:22.133Z,4.68
2022-11-23T21:12:07.675Z,4.47
2022-11-23T21:14:35.440Z,4.05
2022-11-23T21:17:05.926Z,4.18
2022-11-23T21:19:39.281Z,3.72
2022-11-23T21:22:08.455Z,4.38
2022-11-23T21:24:36.022Z,4.13
2022-11-23T21:27:04.742Z,4.13
2022-11-23T21:29:32.507Z,3.85
2022-11-23T21:32:01.699Z,4.47
2022-11-23T21:34:29.790Z,4.00
2022-11-23T21:36:58.134Z,3.80
2022-11-23T21:39:25.563Z,3.72
2022-11-23T21:41:54.204Z,2.85
2022-11-23T21:44:22.844Z,3.40
2022-11-23T21:46:50.206Z,3.53
2022-11-23T21:49:17.647Z,3.33
2022-11-23T21:51:45.857Z,3.95
2022-11-23T21:54:16.488Z,3.95
2022-11-23T21:56:45.475Z,3.58
2022-11-23T21:59:12.580Z,3.65
2022-11-23T22:01:39.913Z,3.17
2022-11-23T22:04:10.795Z,3.25
2022-11-23T22:06:38.615Z,3.05
2022-11-23T22:09:08.087Z,3.10
2022-11-23T22:11:36.817Z,3.30
2022-11-23T22:14:15.243Z,3.53
2022-11-23T22:16:47.112Z,3.17
2022-11-23T22:19:15.644Z,3.78
2022-11-23T22:21:44.225Z,4.10
2022-11-23T22:24:13.764Z,3.72
2022-11-23T22:26:41.082Z,4.15
2022-11-23T22:29:08.483Z,2.95
2022-11-23T22:31:36.327Z,3.70
2022-11-23T22:34:06.092Z,3.55
2022-11-23T22:36:33.323Z,2.97
2022-11-23T22:39:02.888Z,3.03
2022-11-23T22:41:36.833Z,4.72
2022-11-23T22:44:06.955Z,5.70
2022-11-23T22:46:34.635Z,2.60
2022-11-23T22:49:02.035Z,2.75
2022-11-23T22:51:29.805Z,2.38
2022-11-23T22:53:58.735Z,2.78
2022-11-23T22:56:26.653Z,2.90
2022-11-23T22:58:54.064Z,2.65
2022-11-23T23:01:23.952Z,2.50
2022-11-23T23:03:56.300Z,2.33
2022-11-23T23:06:25.379Z,3.00
2022-11-23T23:09:00.678Z,2.70
2022-11-23T23:11:29.975Z,2.65
2022-11-23T23:13:57.147Z,2.35
2022-11-23T23:16:24.876Z,2.20
2022-11-23T23:18:54.065Z,2.58
2022-11-23T23:21:22.577Z,2.67
2022-11-23T23:23:51.419Z,2.85
2022-11-23T23:26:20.754Z,2.95
2022-11-23T23:28:48.197Z,2.40
2022-11-23T23:31:17.067Z,2.63
2022-11-23T23:33:45.542Z,2.17
2022-11-23T23:36:17.891Z,2.60
2022-11-23T23:38:44.954Z,2.47
2022-11-23T23:41:14.153Z,3.28
2022-11-23T23:43:41.972Z,2.65
2022-11-23T23:46:12.122Z,2.97
2022-11-23T23:48:40.371Z,2.97
2022-11-23T23:51:18.723Z,3.30
2022-11-23T23:53:47.156Z,3.30
2022-11-23T23:56:18.532Z,3.28
2022-11-23T23:58:45.791Z,2.88
